sensor_id;sensor_type;location;lat;lon;timestamp;pressure;altitude;pressure_sealevel;temperature;humidity
41947;BME280;27638;42.184;24.848;2023-02-04T00:01:21;99809.72;;;7.17;45.72
41947;BME280;27638;42.184;24.848;2023-02-04T00:03:47;99803.75;;;7.24;46.74
41947;BME280;27638;42.184;24.848;2023-02-04T00:06:12;99801.69;;;7.28;46.49
41947;BME280;27638;42.184;24.848;2023-02-04T00:08:37;99799.75;;;7.30;46.43
41947;BME280;27638;42.184;24.848;2023-02-04T00:11:03;99783.69;;;7.33;46.71
41947;BME280;27638;42.184;24.848;2023-02-04T00:13:29;99787.00;;;7.35;46.83
41947;BME280;27638;42.184;24.848;2023-02-04T00:15:54;99784.94;;;7.29;45.83
41947;BME280;27638;42.184;24.848;2023-02-04T00:18:20;99773.69;;;7.27;46.01
41947;BME280;27638;42.184;24.848;2023-02-04T00:20:45;99776.31;;;7.17;45.56
41947;BME280;27638;42.184;24.848;2023-02-04T00:23:11;99771.31;;;7.14;46.00
41947;BME280;27638;42.184;24.848;2023-02-04T00:25:36;99770.38;;;7.05;45.09
41947;BME280;27638;42.184;24.848;2023-02-04T00:28:02;99771.75;;;7.10;45.35
41947;BME280;27638;42.184;24.848;2023-02-04T00:30:28;99766.34;;;7.21;44.73
41947;BME280;27638;42.184;24.848;2023-02-04T00:32:54;99771.75;;;7.29;44.54
41947;BME280;27638;42.184;24.848;2023-02-04T00:35:24;99776.44;;;7.25;44.49
41947;BME280;27638;42.184;24.848;2023-02-04T00:37:50;99768.16;;;7.30;44.22
41947;BME280;27638;42.184;24.848;2023-02-04T00:40:16;99770.50;;;7.23;44.34
41947;BME280;27638;42.184;24.848;2023-02-04T00:42:41;99765.50;;;7.20;44.38
41947;BME280;27638;42.184;24.848;2023-02-04T00:45:07;99762.88;;;7.20;44.17
41947;BME280;27638;42.184;24.848;2023-02-04T00:47:33;99761.75;;;7.23;44.54
41947;BME280;27638;42.184;24.848;2023-02-04T00:49:59;99757.47;;;7.22;44.22
41947;BME280;27638;42.184;24.848;2023-02-04T00:52:24;99760.09;;;7.22;44.74
41947;BME280;27638;42.184;24.848;2023-02-04T00:54:50;99754.16;;;7.29;43.96
41947;BME280;27638;42.184;24.848;2023-02-04T00:57:15;99751.22;;;7.23;44.65
41947;BME280;27638;42.184;24.848;2023-02-04T00:59:41;99756.91;;;7.28;43.45
41947;BME280;27638;42.184;24.848;2023-02-04T01:02:06;99754.84;;;7.31;43.57
41947;BME280;27638;42.184;24.848;2023-02-04T01:04:32;99751.38;;;7.31;43.79
41947;BME280;27638;42.184;24.848;2023-02-04T01:06:57;99746.94;;;7.22;44.52
41947;BME280;27638;42.184;24.848;2023-02-04T01:09:23;99743.19;;;7.15;44.15
41947;BME280;27638;42.184;24.848;2023-02-04T01:11:48;99735.56;;;7.21;44.89
41947;BME280;27638;42.184;24.848;2023-02-04T01:14:14;99727.25;;;7.35;44.30
41947;BME280;27638;42.184;24.848;2023-02-04T01:16:39;99728.91;;;7.36;43.88
41947;BME280;27638;42.184;24.848;2023-02-04T01:19:05;99717.84;;;7.33;44.41
41947;BME280;27638;42.184;24.848;2023-02-04T01:21:30;99715.19;;;7.33;45.30
41947;BME280;27638;42.184;24.848;2023-02-04T01:23:56;99702.16;;;7.41;45.57
41947;BME280;27638;42.184;24.848;2023-02-04T01:26:21;99680.94;;;7.43;46.11
41947;BME280;27638;42.184;24.848;2023-02-04T01:28:47;99677.97;;;7.55;46.14
41947;BME280;27638;42.184;24.848;2023-02-04T01:31:13;99679.06;;;7.62;45.41
41947;BME280;27638;42.184;24.848;2023-02-04T01:33:39;99669.06;;;7.66;45.60
41947;BME280;27638;42.184;24.848;2023-02-04T01:36:05;99658.91;;;7.71;45.41
41947;BME280;27638;42.184;24.848;2023-02-04T01:38:30;99658.81;;;7.63;46.88
41947;BME280;27638;42.184;24.848;2023-02-04T01:40:56;99653.69;;;7.61;48.72
41947;BME280;27638;42.184;24.848;2023-02-04T01:43:22;99636.44;;;7.67;48.53
41947;BME280;27638;42.184;24.848;2023-02-04T01:45:49;99633.44;;;7.62;45.18
41947;BME280;27638;42.184;24.848;2023-02-04T01:48:17;99625.66;;;7.60;44.73
41947;BME280;27638;42.184;24.848;2023-02-04T01:51:04;99616.97;;;7.50;44.77
41947;BME280;27638;42.184;24.848;2023-02-04T01:53:30;99620.63;;;7.40;45.83
41947;BME280;27638;42.184;24.848;2023-02-04T01:55:56;99610.81;;;7.22;48.20
41947;BME280;27638;42.184;24.848;2023-02-04T01:58:22;99617.31;;;7.28;48.92
41947;BME280;27638;42.184;24.848;2023-02-04T02:00:47;99612.03;;;7.38;48.44
41947;BME280;27638;42.184;24.848;2023-02-04T02:03:13;99615.22;;;7.41;48.78
41947;BME280;27638;42.184;24.848;2023-02-04T02:05:44;99606.66;;;7.29;49.88
41947;BME280;27638;42.184;24.848;2023-02-04T02:08:11;99601.94;;;7.33;49.75
41947;BME280;27638;42.184;24.848;2023-02-04T02:10:39;99595.94;;;7.41;49.18
41947;BME280;27638;42.184;24.848;2023-02-04T02:13:07;99587.50;;;7.27;49.44
41947;BME280;27638;42.184;24.848;2023-02-04T02:15:34;99591.78;;;7.38;49.46
41947;BME280;27638;42.184;24.848;2023-02-04T02:17:59;99587.31;;;7.48;49.00
41947;BME280;27638;42.184;24.848;2023-02-04T02:20:25;99589.03;;;7.40;48.64
41947;BME280;27638;42.184;24.848;2023-02-04T02:25:37;99587.88;;;7.05;49.62
41947;BME280;27638;42.184;24.848;2023-02-04T02:28:09;99588.31;;;6.91;49.77
41947;BME280;27638;42.184;24.848;2023-02-04T02:30:35;99587.34;;;6.92;49.68
41947;BME280;27638;42.184;24.848;2023-02-04T02:33:02;99587.22;;;6.84;50.48
41947;BME280;27638;42.184;24.848;2023-02-04T02:35:28;99583.91;;;6.82;50.48
41947;BME280;27638;42.184;24.848;2023-02-04T02:37:53;99576.00;;;6.91;49.82
41947;BME280;27638;42.184;24.848;2023-02-04T02:40:19;99577.50;;;6.94;49.02
41947;BME280;27638;42.184;24.848;2023-02-04T02:42:47;99578.09;;;6.78;49.38
41947;BME280;27638;42.184;24.848;2023-02-04T02:45:21;99577.81;;;6.81;49.21
41947;BME280;27638;42.184;24.848;2023-02-04T02:47:47;99567.56;;;6.88;48.62
41947;BME280;27638;42.184;24.848;2023-02-04T02:50:16;99558.22;;;7.03;47.87
41947;BME280;27638;42.184;24.848;2023-02-04T02:52:41;99558.44;;;7.19;47.45
41947;BME280;27638;42.184;24.848;2023-02-04T02:55:18;99555.81;;;7.19;46.87
41947;BME280;27638;42.184;24.848;2023-02-04T02:57:45;99559.13;;;7.31;47.44
41947;BME280;27638;42.184;24.848;2023-02-04T03:00:19;99550.47;;;7.39;48.23
41947;BME280;27638;42.184;24.848;2023-02-04T03:03:00;99542.81;;;7.45;47.50
41947;BME280;27638;42.184;24.848;2023-02-04T03:05:28;99536.97;;;7.51;47.60
41947;BME280;27638;42.184;24.848;2023-02-04T03:07:54;99539.84;;;7.58;47.74
41947;BME280;27638;42.184;24.848;2023-02-04T03:10:19;99535.94;;;7.62;47.13
41947;BME280;27638;42.184;24.848;2023-02-04T03:12:45;99523.59;;;7.62;47.26
41947;BME280;27638;42.184;24.848;2023-02-04T03:15:12;99517.63;;;7.60;47.14
41947;BME280;27638;42.184;24.848;2023-02-04T03:17:39;99509.44;;;7.63;46.68
41947;BME280;27638;42.184;24.848;2023-02-04T03:20:05;99506.78;;;7.63;46.55
41947;BME280;27638;42.184;24.848;2023-02-04T03:22:32;99505.44;;;7.59;45.96
41947;BME280;27638;42.184;24.848;2023-02-04T03:24:58;99494.06;;;7.59;45.98
41947;BME280;27638;42.184;24.848;2023-02-04T03:27:23;99496.41;;;7.62;46.40
41947;BME280;27638;42.184;24.848;2023-02-04T03:29:49;99505.06;;;7.54;46.66
41947;BME280;27638;42.184;24.848;2023-02-04T03:32:15;99498.50;;;7.58;47.14
41947;BME280;27638;42.184;24.848;2023-02-04T03:34:40;99499.53;;;7.48;46.65
41947;BME280;27638;42.184;24.848;2023-02-04T03:37:06;99500.28;;;7.40;47.00
41947;BME280;27638;42.184;24.848;2023-02-04T03:39:31;99497.28;;;7.25;47.89
41947;BME280;27638;42.184;24.848;2023-02-04T03:41:59;99501.91;;;7.14;48.09
41947;BME280;27638;42.184;24.848;2023-02-04T03:44:25;99485.03;;;7.07;48.17
41947;BME280;27638;42.184;24.848;2023-02-04T03:46:54;99494.47;;;7.09;48.15
41947;BME280;27638;42.184;24.848;2023-02-04T03:49:22;99485.84;;;7.17;47.53
41947;BME280;27638;42.184;24.848;2023-02-04T03:51:48;99476.66;;;7.21;47.32
41947;BME280;27638;42.184;24.848;2023-02-04T03:54:14;99469.41;;;7.32;46.19
41947;BME280;27638;42.184;24.848;2023-02-04T03:56:39;99458.06;;;7.32;45.66
41947;BME280;27638;42.184;24.848;2023-02-04T03:59:05;99459.22;;;7.20;45.23
41947;BME280;27638;42.184;24.848;2023-02-04T04:01:30;99456.34;;;7.13;46.52
41947;BME280;27638;42.184;24.848;2023-02-04T04:03:56;99449.50;;;6.93;46.98
41947;BME280;27638;42.184;24.848;2023-02-04T04:06:21;99448.53;;;6.94;48.43
41947;BME280;27638;42.184;24.848;2023-02-04T04:08:47;99438.94;;;6.75;48.64
41947;BME280;27638;42.184;24.848;2023-02-04T04:11:12;99438.94;;;6.75;49.48
41947;BME280;27638;42.184;24.848;2023-02-04T04:13:38;99433.56;;;6.67;49.19
41947;BME280;27638;42.184;24.848;2023-02-04T04:16:04;99427.06;;;6.61;49.92
41947;BME280;27638;42.184;24.848;2023-02-04T04:18:30;99420.69;;;6.64;49.39
41947;BME280;27638;42.184;24.848;2023-02-04T04:20:57;99422.78;;;6.60;49.21
41947;BME280;27638;42.184;24.848;2023-02-04T04:23:23;99425.66;;;6.67;49.36
41947;BME280;27638;42.184;24.848;2023-02-04T04:25:48;99421.72;;;6.81;49.39
41947;BME280;27638;42.184;24.848;2023-02-04T04:28:14;99419.63;;;6.84;48.30
41947;BME280;27638;42.184;24.848;2023-02-04T04:30:39;99434.25;;;6.96;47.84
41947;BME280;27638;42.184;24.848;2023-02-04T04:33:05;99431.13;;;7.11;48.25
41947;BME280;27638;42.184;24.848;2023-02-04T04:35:30;99435.66;;;7.18;47.51
41947;BME280;27638;42.184;24.848;2023-02-04T04:37:55;99438.00;;;7.21;46.76
41947;BME280;27638;42.184;24.848;2023-02-04T04:40:21;99446.03;;;7.20;47.27
41947;BME280;27638;42.184;24.848;2023-02-04T04:42:46;99432.63;;;7.13;48.42
41947;BME280;27638;42.184;24.848;2023-02-04T04:45:12;99433.91;;;7.09;47.28
41947;BME280;27638;42.184;24.848;2023-02-04T04:47:38;99426.94;;;6.90;47.94
41947;BME280;27638;42.184;24.848;2023-02-04T04:50:04;99415.34;;;6.83;48.22
41947;BME280;27638;42.184;24.848;2023-02-04T04:52:29;99422.16;;;6.76;48.36
41947;BME280;27638;42.184;24.848;2023-02-04T04:54:55;99422.59;;;6.71;48.23
41947;BME280;27638;42.184;24.848;2023-02-04T04:57:21;99407.50;;;6.73;48.83
41947;BME280;27638;42.184;24.848;2023-02-04T04:59:46;99403.44;;;6.79;49.52
41947;BME280;27638;42.184;24.848;2023-02-04T05:02:12;99404.63;;;6.67;49.52
41947;BME280;27638;42.184;24.848;2023-02-04T05:04:37;99399.06;;;6.70;50.16
41947;BME280;27638;42.184;24.848;2023-02-04T05:07:03;99394.03;;;6.77;49.95
41947;BME280;27638;42.184;24.848;2023-02-04T05:09:28;99402.78;;;6.77;50.40
41947;BME280;27638;42.184;24.848;2023-02-04T05:11:55;99402.44;;;6.90;50.43
41947;BME280;27638;42.184;24.848;2023-02-04T05:14:20;99398.97;;;6.89;50.60
41947;BME280;27638;42.184;24.848;2023-02-04T05:16:46;99395.25;;;6.82;50.29
41947;BME280;27638;42.184;24.848;2023-02-04T05:19:11;99389.06;;;6.73;50.92
41947;BME280;27638;42.184;24.848;2023-02-04T05:21:36;99390.28;;;6.79;50.28
41947;BME280;27638;42.184;24.848;2023-02-04T05:24:02;99386.97;;;6.77;50.47
41947;BME280;27638;42.184;24.848;2023-02-04T05:26:27;99382.00;;;6.74;50.73
41947;BME280;27638;42.184;24.848;2023-02-04T05:28:53;99385.72;;;6.81;50.50
41947;BME280;27638;42.184;24.848;2023-02-04T05:31:18;99383.03;;;6.91;50.28
41947;BME280;27638;42.184;24.848;2023-02-04T05:33:44;99382.59;;;6.95;49.70
41947;BME280;27638;42.184;24.848;2023-02-04T05:36:09;99386.28;;;7.02;49.36
41947;BME280;27638;42.184;24.848;2023-02-04T05:38:35;99395.31;;;7.00;50.04
41947;BME280;27638;42.184;24.848;2023-02-04T05:41:00;99387.78;;;7.05;50.11
41947;BME280;27638;42.184;24.848;2023-02-04T05:43:26;99395.00;;;7.03;50.75
41947;BME280;27638;42.184;24.848;2023-02-04T05:45:51;99405.78;;;7.10;49.33
41947;BME280;27638;42.184;24.848;2023-02-04T05:48:16;99408.19;;;7.21;49.28
41947;BME280;27638;42.184;24.848;2023-02-04T05:50:42;99416.53;;;7.16;49.59
41947;BME280;27638;42.184;24.848;2023-02-04T05:53:08;99412.41;;;7.14;49.67
41947;BME280;27638;42.184;24.848;2023-02-04T05:55:33;99408.34;;;7.19;49.23
41947;BME280;27638;42.184;24.848;2023-02-04T05:57:59;99411.28;;;7.16;50.72
41947;BME280;27638;42.184;24.848;2023-02-04T06:00:25;99407.63;;;6.72;54.14
41947;BME280;27638;42.184;24.848;2023-02-04T06:02:50;99415.09;;;6.39;57.48
41947;BME280;27638;42.184;24.848;2023-02-04T06:05:15;99408.41;;;5.69;59.70
41947;BME280;27638;42.184;24.848;2023-02-04T06:07:42;99424.28;;;5.49;60.01
41947;BME280;27638;42.184;24.848;2023-02-04T06:10:08;99418.91;;;5.89;57.60
41947;BME280;27638;42.184;24.848;2023-02-04T06:12:34;99421.66;;;6.16;56.74
41947;BME280;27638;42.184;24.848;2023-02-04T06:14:59;99414.28;;;6.39;55.78
41947;BME280;27638;42.184;24.848;2023-02-04T06:17:25;99405.06;;;6.62;54.37
41947;BME280;27638;42.184;24.848;2023-02-04T06:19:50;99414.28;;;6.76;54.32
41947;BME280;27638;42.184;24.848;2023-02-04T06:22:16;99402.97;;;6.93;52.85
41947;BME280;27638;42.184;24.848;2023-02-04T06:24:41;99410.41;;;6.98;53.14
41947;BME280;27638;42.184;24.848;2023-02-04T06:27:07;99408.81;;;6.87;54.03
41947;BME280;27638;42.184;24.848;2023-02-04T06:29:32;99415.97;;;6.67;54.85
41947;BME280;27638;42.184;24.848;2023-02-04T06:31:58;99419.13;;;6.71;56.09
41947;BME280;27638;42.184;24.848;2023-02-04T06:34:23;99415.72;;;6.88;55.11
41947;BME280;27638;42.184;24.848;2023-02-04T06:36:49;99424.25;;;7.00;55.69
41947;BME280;27638;42.184;24.848;2023-02-04T06:39:14;99404.25;;;7.07;54.48
41947;BME280;27638;42.184;24.848;2023-02-04T06:41:40;99429.84;;;7.15;53.88
41947;BME280;27638;42.184;24.848;2023-02-04T06:44:05;99415.25;;;7.02;53.43
41947;BME280;27638;42.184;24.848;2023-02-04T06:46:30;99401.25;;;7.02;53.28
41947;BME280;27638;42.184;24.848;2023-02-04T06:48:56;99428.25;;;7.04;53.09
41947;BME280;27638;42.184;24.848;2023-02-04T06:51:21;99407.41;;;6.93;53.36
41947;BME280;27638;42.184;24.848;2023-02-04T06:53:47;99423.44;;;6.99;53.18
41947;BME280;27638;42.184;24.848;2023-02-04T06:56:12;99426.75;;;7.01;53.85
41947;BME280;27638;42.184;24.848;2023-02-04T06:58:38;99443.81;;;6.97;53.58
41947;BME280;27638;42.184;24.848;2023-02-04T07:01:04;99432.69;;;7.03;53.66
41947;BME280;27638;42.184;24.848;2023-02-04T07:03:30;99427.56;;;7.02;53.54
41947;BME280;27638;42.184;24.848;2023-02-04T07:05:56;99436.97;;;7.04;53.09
41947;BME280;27638;42.184;24.848;2023-02-04T07:08:21;99426.31;;;7.06;53.73
41947;BME280;27638;42.184;24.848;2023-02-04T07:10:47;99429.47;;;7.10;54.00
41947;BME280;27638;42.184;24.848;2023-02-04T07:13:12;99429.72;;;7.16;54.10
41947;BME280;27638;42.184;24.848;2023-02-04T07:15:38;99443.50;;;7.28;54.12
41947;BME280;27638;42.184;24.848;2023-02-04T07:18:03;99432.72;;;7.21;53.71
41947;BME280;27638;42.184;24.848;2023-02-04T07:20:29;99429.25;;;7.21;54.63
41947;BME280;27638;42.184;24.848;2023-02-04T07:22:54;99437.75;;;7.15;54.56
41947;BME280;27638;42.184;24.848;2023-02-04T07:25:20;99438.28;;;7.18;55.07
41947;BME280;27638;42.184;24.848;2023-02-04T07:27:45;99437.16;;;7.21;55.22
41947;BME280;27638;42.184;24.848;2023-02-04T07:30:11;99428.94;;;7.33;54.47
41947;BME280;27638;42.184;24.848;2023-02-04T07:32:37;99435.19;;;7.50;54.67
41947;BME280;27638;42.184;24.848;2023-02-04T07:35:02;99435.50;;;7.65;54.42
41947;BME280;27638;42.184;24.848;2023-02-04T07:37:28;99431.19;;;7.82;53.48
41947;BME280;27638;42.184;24.848;2023-02-04T07:39:53;99440.88;;;7.99;52.89
41947;BME280;27638;42.184;24.848;2023-02-04T07:42:19;99439.00;;;8.09;52.47
41947;BME280;27638;42.184;24.848;2023-02-04T07:44:44;99441.31;;;8.12;52.07
41947;BME280;27638;42.184;24.848;2023-02-04T07:47:10;99432.59;;;8.12;51.76
41947;BME280;27638;42.184;24.848;2023-02-04T07:49:36;99426.06;;;7.98;51.98
41947;BME280;27638;42.184;24.848;2023-02-04T07:52:01;99427.47;;;8.10;52.06
41947;BME280;27638;42.184;24.848;2023-02-04T07:54:27;99407.41;;;8.35;51.71
41947;BME280;27638;42.184;24.848;2023-02-04T07:56:52;99407.03;;;8.56;51.16
41947;BME280;27638;42.184;24.848;2023-02-04T07:59:17;99404.44;;;8.64;50.88
41947;BME280;27638;42.184;24.848;2023-02-04T08:01:43;99399.28;;;8.96;51.03
41947;BME280;27638;42.184;24.848;2023-02-04T08:04:08;99387.63;;;8.73;51.17
41947;BME280;27638;42.184;24.848;2023-02-04T08:06:34;99395.16;;;9.02;51.41
41947;BME280;27638;42.184;24.848;2023-02-04T08:08:59;99389.88;;;9.02;51.55
41947;BME280;27638;42.184;24.848;2023-02-04T08:11:25;99390.03;;;8.92;51.89
41947;BME280;27638;42.184;24.848;2023-02-04T08:13:51;99389.16;;;8.84;52.27
41947;BME280;27638;42.184;24.848;2023-02-04T08:16:16;99377.72;;;8.67;52.65
41947;BME280;27638;42.184;24.848;2023-02-04T08:18:42;99363.91;;;8.81;53.23
41947;BME280;27638;42.184;24.848;2023-02-04T08:21:07;99360.28;;;8.82;53.50
41947;BME280;27638;42.184;24.848;2023-02-04T08:23:33;99348.41;;;8.86;52.94
41947;BME280;27638;42.184;24.848;2023-02-04T08:25:58;99349.94;;;9.05;53.25
41947;BME280;27638;42.184;24.848;2023-02-04T08:28:24;99336.72;;;8.97;53.64
41947;BME280;27638;42.184;24.848;2023-02-04T08:30:50;99342.53;;;9.09;53.34
41947;BME280;27638;42.184;24.848;2023-02-04T08:33:16;99332.78;;;9.09;53.26
41947;BME280;27638;42.184;24.848;2023-02-04T08:35:41;99331.00;;;9.26;53.17
41947;BME280;27638;42.184;24.848;2023-02-04T08:38:07;99312.03;;;9.39;53.10
41947;BME280;27638;42.184;24.848;2023-02-04T08:40:33;99309.72;;;9.52;51.62
41947;BME280;27638;42.184;24.848;2023-02-04T08:42:58;99313.03;;;9.54;51.15
41947;BME280;27638;42.184;24.848;2023-02-04T08:45:23;99303.28;;;9.63;50.44
41947;BME280;27638;42.184;24.848;2023-02-04T08:47:49;99309.22;;;9.73;50.34
41947;BME280;27638;42.184;24.848;2023-02-04T08:50:15;99313.16;;;9.85;49.98
41947;BME280;27638;42.184;24.848;2023-02-04T08:52:40;99312.97;;;10.03;50.84
41947;BME280;27638;42.184;24.848;2023-02-04T08:55:06;99321.38;;;10.22;49.10
41947;BME280;27638;42.184;24.848;2023-02-04T08:57:32;99308.78;;;10.33;47.27
41947;BME280;27638;42.184;24.848;2023-02-04T08:59:59;99315.25;;;10.14;45.67
41947;BME280;27638;42.184;24.848;2023-02-04T09:02:24;99308.97;;;10.15;46.15
41947;BME280;27638;42.184;24.848;2023-02-04T09:04:50;99316.06;;;10.31;46.14
41947;BME280;27638;42.184;24.848;2023-02-04T09:07:15;99304.63;;;10.46;45.10
41947;BME280;27638;42.184;24.848;2023-02-04T09:09:41;99310.56;;;10.48;45.12
41947;BME280;27638;42.184;24.848;2023-02-04T09:12:06;99309.84;;;10.63;44.62
41947;BME280;27638;42.184;24.848;2023-02-04T09:14:32;99315.19;;;10.85;44.79
41947;BME280;27638;42.184;24.848;2023-02-04T09:16:57;99301.41;;;10.90;43.60
41947;BME280;27638;42.184;24.848;2023-02-04T09:19:22;99302.47;;;11.04;43.30
41947;BME280;27638;42.184;24.848;2023-02-04T09:21:53;99300.06;;;11.17;43.02
41947;BME280;27638;42.184;24.848;2023-02-04T09:24:18;99308.44;;;11.06;42.43
41947;BME280;27638;42.184;24.848;2023-02-04T09:26:44;99295.50;;;10.80;42.45
41947;BME280;27638;42.184;24.848;2023-02-04T09:29:09;99296.47;;;10.56;43.12
41947;BME280;27638;42.184;24.848;2023-02-04T09:31:35;99292.22;;;10.39;43.86
41947;BME280;27638;42.184;24.848;2023-02-04T09:34:00;99293.19;;;10.46;44.72
41947;BME280;27638;42.184;24.848;2023-02-04T09:36:26;99281.00;;;10.29;45.47
41947;BME280;27638;42.184;24.848;2023-02-04T09:38:54;99286.63;;;10.17;45.77
41947;BME280;27638;42.184;24.848;2023-02-04T09:41:20;99284.53;;;9.97;45.33
41947;BME280;27638;42.184;24.848;2023-02-04T09:43:45;99281.06;;;10.04;44.39
41947;BME280;27638;42.184;24.848;2023-02-04T09:46:21;99270.84;;;9.93;45.03
41947;BME280;27638;42.184;24.848;2023-02-04T09:48:48;99266.84;;;9.97;45.23
41947;BME280;27638;42.184;24.848;2023-02-04T09:51:18;99260.59;;;9.90;45.02
41947;BME280;27638;42.184;24.848;2023-02-04T09:53:46;99259.13;;;9.87;44.72
41947;BME280;27638;42.184;24.848;2023-02-04T09:56:12;99240.88;;;10.01;43.42
41947;BME280;27638;42.184;24.848;2023-02-04T09:58:39;99244.53;;;10.00;43.92
41947;BME280;27638;42.184;24.848;2023-02-04T10:01:12;99231.34;;;9.91;43.67
41947;BME280;27638;42.184;24.848;2023-02-04T10:03:39;99230.72;;;9.81;43.26
41947;BME280;27638;42.184;24.848;2023-02-04T10:06:18;99224.72;;;9.96;43.54
41947;BME280;27638;42.184;24.848;2023-02-04T10:08:46;99221.69;;;10.07;44.38
41947;BME280;27638;42.184;24.848;2023-02-04T10:11:13;99220.84;;;10.22;45.08
41947;BME280;27638;42.184;24.848;2023-02-04T10:13:47;99218.56;;;10.50;45.10
41947;BME280;27638;42.184;24.848;2023-02-04T10:16:23;99212.41;;;10.58;41.84
41947;BME280;27638;42.184;24.848;2023-02-04T10:18:55;99209.94;;;10.57;41.49
41947;BME280;27638;42.184;24.848;2023-02-04T10:21:30;99183.88;;;10.68;41.23
41947;BME280;27638;42.184;24.848;2023-02-04T10:23:58;99206.94;;;10.82;41.34
41947;BME280;27638;42.184;24.848;2023-02-04T10:26:27;99202.34;;;10.76;40.37
41947;BME280;27638;42.184;24.848;2023-02-04T10:29:00;99212.00;;;10.92;41.52
41947;BME280;27638;42.184;24.848;2023-02-04T10:31:28;99209.53;;;10.91;41.70
41947;BME280;27638;42.184;24.848;2023-02-04T10:36:34;99198.97;;;11.05;42.39
41947;BME280;27638;42.184;24.848;2023-02-04T10:39:05;99193.31;;;11.08;41.01
41947;BME280;27638;42.184;24.848;2023-02-04T10:41:31;99183.38;;;11.10;41.28
41947;BME280;27638;42.184;24.848;2023-02-04T10:44:08;99185.69;;;10.91;41.71
41947;BME280;27638;42.184;24.848;2023-02-04T10:46:33;99183.97;;;10.98;41.98
41947;BME280;27638;42.184;24.848;2023-02-04T10:48:59;99181.97;;;11.00;41.48
41947;BME280;27638;42.184;24.848;2023-02-04T10:51:24;99164.28;;;11.15;42.70
41947;BME280;27638;42.184;24.848;2023-02-04T10:53:50;99166.50;;;11.26;42.39
41947;BME280;27638;42.184;24.848;2023-02-04T10:56:34;99172.59;;;11.12;41.95
41947;BME280;27638;42.184;24.848;2023-02-04T10:58:59;99161.06;;;11.05;41.82
41947;BME280;27638;42.184;24.848;2023-02-04T11:01:26;99150.19;;;11.00;41.56
41947;BME280;27638;42.184;24.848;2023-02-04T11:03:52;99149.97;;;10.86;42.86
41947;BME280;27638;42.184;24.848;2023-02-04T11:06:20;99154.00;;;10.97;43.43
41947;BME280;27638;42.184;24.848;2023-02-04T11:08:47;99148.38;;;10.77;43.54
41947;BME280;27638;42.184;24.848;2023-02-04T11:11:17;99139.25;;;10.80;43.94
41947;BME280;27638;42.184;24.848;2023-02-04T11:14:03;99129.38;;;10.74;43.92
41947;BME280;27638;42.184;24.848;2023-02-04T11:16:33;99132.91;;;10.66;44.98
41947;BME280;27638;42.184;24.848;2023-02-04T11:19:11;99136.63;;;10.26;45.46
41947;BME280;27638;42.184;24.848;2023-02-04T11:26:47;99144.47;;;10.11;46.36
41947;BME280;27638;42.184;24.848;2023-02-04T11:29:34;99144.69;;;10.02;47.13
41947;BME280;27638;42.184;24.848;2023-02-04T11:32:26;99136.59;;;9.95;47.14
41947;BME280;27638;42.184;24.848;2023-02-04T11:34:51;99138.25;;;9.96;46.67
41947;BME280;27638;42.184;24.848;2023-02-04T11:40:00;99130.41;;;9.80;47.97
41947;BME280;27638;42.184;24.848;2023-02-04T11:45:15;99127.53;;;9.89;48.03
41947;BME280;27638;42.184;24.848;2023-02-04T11:47:42;99116.84;;;9.83;48.08
41947;BME280;27638;42.184;24.848;2023-02-04T11:50:28;99115.19;;;9.82;47.89
41947;BME280;27638;42.184;24.848;2023-02-04T11:52:56;99108.91;;;9.83;48.32
41947;BME280;27638;42.184;24.848;2023-02-04T11:55:22;99108.03;;;9.90;48.30
41947;BME280;27638;42.184;24.848;2023-02-04T11:57:53;99105.19;;;10.00;48.88
41947;BME280;27638;42.184;24.848;2023-02-04T12:00:22;99103.97;;;10.11;47.50
41947;BME280;27638;42.184;24.848;2023-02-04T12:03:02;99106.91;;;10.16;47.62
41947;BME280;27638;42.184;24.848;2023-02-04T12:05:42;99098.66;;;10.11;47.17
41947;BME280;27638;42.184;24.848;2023-02-04T12:08:10;99098.31;;;10.22;48.18
41947;BME280;27638;42.184;24.848;2023-02-04T12:10:36;99080.59;;;10.22;47.50
41947;BME280;27638;42.184;24.848;2023-02-04T12:13:11;99083.53;;;10.28;47.16
41947;BME280;27638;42.184;24.848;2023-02-04T12:15:37;99082.66;;;10.35;47.86
41947;BME280;27638;42.184;24.848;2023-02-04T12:18:08;99077.50;;;10.42;48.22
41947;BME280;27638;42.184;24.848;2023-02-04T12:20:37;99096.94;;;10.26;48.06
41947;BME280;27638;42.184;24.848;2023-02-04T12:23:04;99085.91;;;10.14;48.94
41947;BME280;27638;42.184;24.848;2023-02-04T12:25:30;99069.69;;;10.17;48.95
41947;BME280;27638;42.184;24.848;2023-02-04T12:27:56;99095.97;;;10.19;48.84
41947;BME280;27638;42.184;24.848;2023-02-04T12:30:22;99101.63;;;10.16;50.00
41947;BME280;27638;42.184;24.848;2023-02-04T12:32:48;99081.16;;;10.10;49.50
41947;BME280;27638;42.184;24.848;2023-02-04T12:35:14;99104.72;;;10.19;49.18
41947;BME280;27638;42.184;24.848;2023-02-04T12:37:39;99100.78;;;10.15;48.96
41947;BME280;27638;42.184;24.848;2023-02-04T12:40:05;99078.09;;;9.98;49.25
41947;BME280;27638;42.184;24.848;2023-02-04T12:42:31;99094.50;;;10.16;49.70
41947;BME280;27638;42.184;24.848;2023-02-04T12:44:56;99098.66;;;10.11;49.58
41947;BME280;27638;42.184;24.848;2023-02-04T12:47:22;99103.13;;;10.10;49.07
41947;BME280;27638;42.184;24.848;2023-02-04T12:49:47;99099.31;;;10.13;48.68
41947;BME280;27638;42.184;24.848;2023-02-04T12:52:13;99105.13;;;10.08;49.02
41947;BME280;27638;42.184;24.848;2023-02-04T12:54:38;99109.53;;;10.16;50.55
41947;BME280;27638;42.184;24.848;2023-02-04T12:57:04;99112.66;;;10.28;50.41
41947;BME280;27638;42.184;24.848;2023-02-04T12:59:29;99115.22;;;10.05;50.36
41947;BME280;27638;42.184;24.848;2023-02-04T13:01:56;99120.69;;;10.03;51.58
41947;BME280;27638;42.184;24.848;2023-02-04T13:04:21;99116.59;;;10.01;51.83
41947;BME280;27638;42.184;24.848;2023-02-04T13:06:47;99124.94;;;9.81;52.56
41947;BME280;27638;42.184;24.848;2023-02-04T13:09:12;99130.44;;;9.72;53.22
41947;BME280;27638;42.184;24.848;2023-02-04T13:11:38;99128.00;;;9.62;53.60